sensor_id;sensor_type;location;lat;lon;timestamp;pressure;altitude;pressure_sealevel;temperature;humidity
40276;BME280;25990;52.768;16.930;2024-01-15T00:00:37;99368.23;;;1.29;83.51
40276;BME280;25990;52.768;16.930;2024-01-15T00:02:59;99354.66;;;1.30;83.35
40276;BME280;25990;52.768;16.930;2024-01-15T00:05:22;99351.84;;;1.25;83.35
40276;BME280;25990;52.768;16.930;2024-01-15T00:07:44;99338.97;;;1.23;83.43
40276;BME280;25990;52.768;16.930;2024-01-15T00:10:07;99339.08;;;1.25;83.43
40276;BME280;25990;52.768;16.930;2024-01-15T00:12:29;99338.48;;;1.29;83.42
40276;BME280;25990;52.768;16.930;2024-01-15T00:14:51;99324.84;;;1.29;83.26
40276;BME280;25990;52.768;16.930;2024-01-15T00:17:13;99328.98;;;1.27;83.31
40276;BME280;25990;52.768;16.930;2024-01-15T00:19:36;99316.98;;;1.26;83.46
40276;BME280;25990;52.768;16.930;2024-01-15T00:21:58;99304.74;;;1.20;83.72
40276;BME280;25990;52.768;16.930;2024-01-15T00:24:20;99308.17;;;1.20;83.73
40276;BME280;25990;52.768;16.930;2024-01-15T00:26:43;99298.93;;;1.22;83.63
40276;BME280;25990;52.768;16.930;2024-01-15T00:29:07;99298.13;;;1.23;83.52
40276;BME280;25990;52.768;16.930;2024-01-15T00:31:27;99286.34;;;1.26;83.49
40276;BME280;25990;52.768;16.930;2024-01-15T00:33:49;99283.52;;;1.21;83.48
40276;BME280;25990;52.768;16.930;2024-01-15T00:36:12;99291.28;;;1.22;83.43
40276;BME280;25990;52.768;16.930;2024-01-15T00:38:34;99290.58;;;1.25;83.41
40276;BME280;25990;52.768;16.930;2024-01-15T00:40:56;99286.17;;;1.22;83.29
40276;BME280;25990;52.768;16.930;2024-01-15T00:43:19;99282.64;;;1.20;83.40
40276;BME280;25990;52.768;16.930;2024-01-15T00:45:42;99278.24;;;1.18;83.42
40276;BME280;25990;52.768;16.930;2024-01-15T00:48:04;99274.11;;;1.20;83.36
40276;BME280;25990;52.768;16.930;2024-01-15T00:50:26;99268.91;;;1.18;83.37
40276;BME280;25990;52.768;16.930;2024-01-15T00:52:48;99269.88;;;1.20;83.25
40276;BME280;25990;52.768;16.930;2024-01-15T00:55:10;99262.99;;;1.19;83.29
40276;BME280;25990;52.768;16.930;2024-01-15T00:57:33;99265.75;;;1.22;83.28
40276;BME280;25990;52.768;16.930;2024-01-15T00:59:55;99260.66;;;1.22;83.21
40276;BME280;25990;52.768;16.930;2024-01-15T01:02:17;99259.40;;;1.16;83.19
40276;BME280;25990;52.768;16.930;2024-01-15T01:04:40;99260.55;;;1.21;83.19
40276;BME280;25990;52.768;16.930;2024-01-15T01:07:02;99260.98;;;1.14;83.22
40276;BME280;25990;52.768;16.930;2024-01-15T01:09:24;99266.84;;;1.13;83.11
40276;BME280;25990;52.768;16.930;2024-01-15T01:11:47;99255.00;;;1.13;83.19
40276;BME280;25990;52.768;16.930;2024-01-15T01:14:09;99250.77;;;1.14;83.21
40276;BME280;25990;52.768;16.930;2024-01-15T01:16:32;99245.94;;;1.18;83.31
40276;BME280;25990;52.768;16.930;2024-01-15T01:18:54;99235.45;;;1.14;83.14
40276;BME280;25990;52.768;16.930;2024-01-15T01:21:16;99223.77;;;1.17;83.25
40276;BME280;25990;52.768;16.930;2024-01-15T01:23:38;99210.03;;;1.15;83.29
40276;BME280;25990;52.768;16.930;2024-01-15T01:26:01;99215.21;;;1.17;83.22
40276;BME280;25990;52.768;16.930;2024-01-15T01:28:23;99212.59;;;1.15;83.17
40276;BME280;25990;52.768;16.930;2024-01-15T01:30:45;99208.09;;;1.11;83.07
40276;BME280;25990;52.768;16.930;2024-01-15T01:33:08;99210.81;;;1.14;83.13
40276;BME280;25990;52.768;16.930;2024-01-15T01:35:30;99202.27;;;1.14;83.11
40276;BME280;25990;52.768;16.930;2024-01-15T01:37:52;99202.01;;;1.09;83.07
40276;BME280;25990;52.768;16.930;2024-01-15T01:40:15;99202.88;;;1.10;83.13
40276;BME280;25990;52.768;16.930;2024-01-15T01:42:37;99197.08;;;1.12;83.16
40276;BME280;25990;52.768;16.930;2024-01-15T01:44:59;99193.66;;;1.12;83.08
40276;BME280;25990;52.768;16.930;2024-01-15T01:47:22;99185.72;;;1.07;83.07
40276;BME280;25990;52.768;16.930;2024-01-15T01:49:44;99189.31;;;1.11;83.12
40276;BME280;25990;52.768;16.930;2024-01-15T01:52:06;99175.42;;;1.06;83.18
40276;BME280;25990;52.768;16.930;2024-01-15T01:54:31;99175.62;;;1.09;83.29
40276;BME280;25990;52.768;16.930;2024-01-15T01:56:51;99172.77;;;1.04;83.20
40276;BME280;25990;52.768;16.930;2024-01-15T01:59:13;99160.21;;;1.07;83.14
40276;BME280;25990;52.768;16.930;2024-01-15T02:01:36;99165.21;;;1.06;83.41
40276;BME280;25990;52.768;16.930;2024-01-15T02:03:58;99155.11;;;1.07;83.09
40276;BME280;25990;52.768;16.930;2024-01-15T02:06:20;99147.71;;;1.12;82.99
40276;BME280;25990;52.768;16.930;2024-01-15T02:08:43;99148.42;;;1.09;82.98
40276;BME280;25990;52.768;16.930;2024-01-15T02:11:05;99141.74;;;1.11;83.03
40276;BME280;25990;52.768;16.930;2024-01-15T02:13:27;99138.99;;;1.08;82.83
40276;BME280;25990;52.768;16.930;2024-01-15T02:15:50;99125.96;;;1.03;83.07
40276;BME280;25990;52.768;16.930;2024-01-15T02:18:12;99130.09;;;1.01;83.06
40276;BME280;25990;52.768;16.930;2024-01-15T02:20:35;99129.22;;;1.01;83.04
40276;BME280;25990;52.768;16.930;2024-01-15T02:25:19;99108.11;;;1.03;83.08
40276;BME280;25990;52.768;16.930;2024-01-15T02:27:42;99102.13;;;1.03;83.14
40276;BME280;25990;52.768;16.930;2024-01-15T02:30:05;99101.32;;;1.04;83.16
40276;BME280;25990;52.768;16.930;2024-01-15T02:32:26;99094.98;;;0.97;83.21
40276;BME280;25990;52.768;16.930;2024-01-15T02:34:48;99093.07;;;0.93;83.25
40276;BME280;25990;52.768;16.930;2024-01-15T02:37:11;99102.83;;;1.00;83.21
40276;BME280;25990;52.768;16.930;2024-01-15T02:39:33;99095.19;;;1.00;83.09
40276;BME280;25990;52.768;16.930;2024-01-15T02:41:55;99080.84;;;1.02;83.18
40276;BME280;25990;52.768;16.930;2024-01-15T02:44:18;99073.70;;;0.97;83.23
40276;BME280;25990;52.768;16.930;2024-01-15T02:46:40;99073.00;;;0.99;83.13
40276;BME280;25990;52.768;16.930;2024-01-15T02:49:02;99068.87;;;1.01;83.02
40276;BME280;25990;52.768;16.930;2024-01-15T02:51:25;99066.31;;;1.01;82.90
40276;BME280;25990;52.768;16.930;2024-01-15T02:53:49;99066.05;;;0.97;83.10
40276;BME280;25990;52.768;16.930;2024-01-15T02:56:09;99068.59;;;0.97;83.16
40276;BME280;25990;52.768;16.930;2024-01-15T02:58:32;99063.23;;;0.92;83.27
40276;BME280;25990;52.768;16.930;2024-01-15T03:00:54;99058.94;;;0.91;83.46
40276;BME280;25990;52.768;16.930;2024-01-15T03:03:16;99050.82;;;0.83;83.74
40276;BME280;25990;52.768;16.930;2024-01-15T03:05:39;99046.52;;;0.82;84.02
40276;BME280;25990;52.768;16.930;2024-01-15T03:08:01;99046.32;;;0.79;84.14
40276;BME280;25990;52.768;16.930;2024-01-15T03:10:23;99040.55;;;0.82;84.03
40276;BME280;25990;52.768;16.930;2024-01-15T03:12:46;99044.85;;;0.83;84.07
40276;BME280;25990;52.768;16.930;2024-01-15T03:15:11;99033.57;;;0.79;84.25
40276;BME280;25990;52.768;16.930;2024-01-15T03:17:31;99033.57;;;0.79;84.31
40276;BME280;25990;52.768;16.930;2024-01-15T03:19:53;99034.28;;;0.77;84.39
40276;BME280;25990;52.768;16.930;2024-01-15T03:22:18;99023.21;;;0.76;84.40
40276;BME280;25990;52.768;16.930;2024-01-15T03:24:38;99030.86;;;0.76;84.46
40276;BME280;25990;52.768;16.930;2024-01-15T03:27:00;99029.71;;;0.71;84.65
40276;BME280;25990;52.768;16.930;2024-01-15T03:29:22;99026.36;;;0.72;84.63
40276;BME280;25990;52.768;16.930;2024-01-15T03:31:45;99027.23;;;0.73;84.57
40276;BME280;25990;52.768;16.930;2024-01-15T03:34:07;99028.14;;;0.73;84.68
40276;BME280;25990;52.768;16.930;2024-01-15T03:36:29;99018.81;;;0.74;84.71
40276;BME280;25990;52.768;16.930;2024-01-15T03:38:52;99012.13;;;0.76;84.62
40276;BME280;25990;52.768;16.930;2024-01-15T03:41:14;99010.28;;;0.73;84.53
40276;BME280;25990;52.768;16.930;2024-01-15T03:43:36;99011.06;;;0.72;84.70
40276;BME280;25990;52.768;16.930;2024-01-15T03:45:59;99002.64;;;0.73;84.58
40276;BME280;25990;52.768;16.930;2024-01-15T03:48:21;99026.36;;;0.72;84.79
40276;BME280;25990;52.768;16.930;2024-01-15T03:50:43;99022.23;;;0.74;84.74
40276;BME280;25990;52.768;16.930;2024-01-15T03:53:06;99026.46;;;0.74;84.74
40276;BME280;25990;52.768;16.930;2024-01-15T03:55:28;99019.68;;;0.74;84.64
40276;BME280;25990;52.768;16.930;2024-01-15T03:57:50;99024.62;;;0.71;84.63
40276;BME280;25990;52.768;16.930;2024-01-15T04:00:14;99025.38;;;0.70;84.81
40276;BME280;25990;52.768;16.930;2024-01-15T04:02:35;99025.66;;;0.75;84.66
40276;BME280;25990;52.768;16.930;2024-01-15T04:04:57;99026.36;;;0.72;84.65
40276;BME280;25990;52.768;16.930;2024-01-15T04:07:20;99020.30;;;0.70;84.52
40276;BME280;25990;52.768;16.930;2024-01-15T04:09:42;99032.87;;;0.67;84.51
40276;BME280;25990;52.768;16.930;2024-01-15T04:12:05;99027.58;;;0.64;84.32
40276;BME280;25990;52.768;16.930;2024-01-15T04:14:27;99036.02;;;0.63;84.43
40276;BME280;25990;52.768;16.930;2024-01-15T04:16:49;99025.83;;;0.63;84.47
40276;BME280;25990;52.768;16.930;2024-01-15T04:19:11;99018.98;;;0.62;84.15
40276;BME280;25990;52.768;16.930;2024-01-15T04:21:33;99027.41;;;0.61;84.13
40276;BME280;25990;52.768;16.930;2024-01-15T04:23:56;99018.61;;;0.56;83.95
40276;BME280;25990;52.768;16.930;2024-01-15T04:26:18;99020.35;;;0.57;84.17
40276;BME280;25990;52.768;16.930;2024-01-15T04:28:40;99021.93;;;0.55;84.54
40276;BME280;25990;52.768;16.930;2024-01-15T04:31:03;99015.26;;;0.57;84.73
40276;BME280;25990;52.768;16.930;2024-01-15T04:33:25;99020.89;;;0.51;84.66
40276;BME280;25990;52.768;16.930;2024-01-15T04:35:48;99014.12;;;0.52;84.75
40276;BME280;25990;52.768;16.930;2024-01-15T04:38:10;99005.13;;;0.44;85.28
40276;BME280;25990;52.768;16.930;2024-01-15T04:40:32;99004.16;;;0.41;85.37
40276;BME280;25990;52.768;16.930;2024-01-15T04:42:54;99015.33;;;0.44;85.08
40276;BME280;25990;52.768;16.930;2024-01-15T04:45:16;99001.55;;;0.40;84.46
40276;BME280;25990;52.768;16.930;2024-01-15T04:47:39;99013.30;;;0.38;83.67
40276;BME280;25990;52.768;16.930;2024-01-15T04:50:01;99011.79;;;0.27;83.07
40276;BME280;25990;52.768;16.930;2024-01-15T04:52:23;99011.79;;;0.27;83.10
40276;BME280;25990;52.768;16.930;2024-01-15T04:54:45;99003.77;;;0.20;82.99
40276;BME280;25990;52.768;16.930;2024-01-15T04:57:08;99004.53;;;0.19;82.80
40276;BME280;25990;52.768;16.930;2024-01-15T04:59:30;99007.36;;;0.24;82.93
40276;BME280;25990;52.768;16.930;2024-01-15T05:01:53;98997.45;;;0.29;82.78
40276;BME280;25990;52.768;16.930;2024-01-15T05:04:15;99007.13;;;0.34;82.73
40276;BME280;25990;52.768;16.930;2024-01-15T05:06:37;99007.30;;;0.37;81.91
40276;BME280;25990;52.768;16.930;2024-01-15T05:09:00;98999.66;;;0.37;82.11
40276;BME280;25990;52.768;16.930;2024-01-15T05:11:22;98996.45;;;0.40;82.03
40276;BME280;25990;52.768;16.930;2024-01-15T05:13:44;99003.45;;;0.44;81.72
40276;BME280;25990;52.768;16.930;2024-01-15T05:16:07;99000.13;;;0.45;81.92
40276;BME280;25990;52.768;16.930;2024-01-15T05:18:29;98998.36;;;0.44;81.75
40276;BME280;25990;52.768;16.930;2024-01-15T05:20:51;99003.66;;;0.47;81.95
40276;BME280;25990;52.768;16.930;2024-01-15T05:23:14;98993.36;;;0.46;82.01
40276;BME280;25990;52.768;16.930;2024-01-15T05:25:36;98986.95;;;0.52;82.18
40276;BME280;25990;52.768;16.930;2024-01-15T05:27:58;98994.70;;;0.54;82.27
40276;BME280;25990;52.768;16.930;2024-01-15T05:30:21;98982.73;;;0.53;81.96
40276;BME280;25990;52.768;16.930;2024-01-15T05:32:43;98987.05;;;0.54;81.99
40276;BME280;25990;52.768;16.930;2024-01-15T05:35:06;98976.05;;;0.55;81.73
40276;BME280;25990;52.768;16.930;2024-01-15T05:37:28;98974.91;;;0.50;82.11
40276;BME280;25990;52.768;16.930;2024-01-15T05:39:50;98978.77;;;0.43;81.76
40276;BME280;25990;52.768;16.930;2024-01-15T05:42:12;98981.69;;;0.49;82.01
40276;BME280;25990;52.768;16.930;2024-01-15T05:44:35;98976.75;;;0.52;82.07
40276;BME280;25990;52.768;16.930;2024-01-15T05:46:57;98962.26;;;0.51;82.08
40276;BME280;25990;52.768;16.930;2024-01-15T05:49:19;98965.68;;;0.52;82.10
40276;BME280;25990;52.768;16.930;2024-01-15T05:51:42;98969.81;;;0.50;81.96
40276;BME280;25990;52.768;16.930;2024-01-15T05:54:04;98974.10;;;0.51;81.85
40276;BME280;25990;52.768;16.930;2024-01-15T05:56:26;98962.52;;;0.56;81.83
40276;BME280;25990;52.768;16.930;2024-01-15T05:58:49;98964.27;;;0.57;81.62
40276;BME280;25990;52.768;16.930;2024-01-15T06:01:11;98962.70;;;0.59;81.48
40276;BME280;25990;52.768;16.930;2024-01-15T06:03:33;98966.31;;;0.63;81.46
40276;BME280;25990;52.768;16.930;2024-01-15T06:05:56;98954.34;;;0.61;81.08
40276;BME280;25990;52.768;16.930;2024-01-15T06:08:18;98961.12;;;0.61;80.92
40276;BME280;25990;52.768;16.930;2024-01-15T06:10:40;98942.20;;;0.57;81.17
40276;BME280;25990;52.768;16.930;2024-01-15T06:13:03;98947.03;;;0.53;81.18
40276;BME280;25990;52.768;16.930;2024-01-15T06:15:25;98939.93;;;0.47;80.85
40276;BME280;25990;52.768;16.930;2024-01-15T06:17:47;98949.93;;;0.44;81.15
40276;BME280;25990;52.768;16.930;2024-01-15T06:20:11;98941.50;;;0.45;81.35
40276;BME280;25990;52.768;16.930;2024-01-15T06:22:32;98938.09;;;0.45;81.27
40276;BME280;25990;52.768;16.930;2024-01-15T06:24:54;98950.20;;;0.49;81.16
40276;BME280;25990;52.768;16.930;2024-01-15T06:27:17;98947.74;;;0.50;81.32
40276;BME280;25990;52.768;16.930;2024-01-15T06:29:44;98952.13;;;0.53;81.45
40276;BME280;25990;52.768;16.930;2024-01-15T06:32:02;98955.65;;;0.55;82.05
40276;BME280;25990;52.768;16.930;2024-01-15T06:34:24;98949.52;;;0.51;81.95
40276;BME280;25990;52.768;16.930;2024-01-15T06:36:46;98953.04;;;0.53;82.20
40276;BME280;25990;52.768;16.930;2024-01-15T06:39:08;98956.27;;;0.51;82.18
40276;BME280;25990;52.768;16.930;2024-01-15T06:41:30;98959.72;;;0.51;82.05
40276;BME280;25990;52.768;16.930;2024-01-15T06:43:55;98954.62;;;0.51;82.13
40276;BME280;25990;52.768;16.930;2024-01-15T06:48:37;98967.97;;;0.47;82.02
40276;BME280;25990;52.768;16.930;2024-01-15T06:51:00;98962.16;;;0.50;82.23
40276;BME280;25990;52.768;16.930;2024-01-15T06:53:31;98962.00;;;0.47;81.99
40276;BME280;25990;52.768;16.930;2024-01-15T06:55:44;98962.77;;;0.46;81.95
40276;BME280;25990;52.768;16.930;2024-01-15T06:58:10;98964.61;;;0.48;81.96
40276;BME280;25990;52.768;16.930;2024-01-15T07:00:29;98967.10;;;0.47;81.74
40276;BME280;25990;52.768;16.930;2024-01-15T07:02:51;98964.72;;;0.50;81.33
40276;BME280;25990;52.768;16.930;2024-01-15T07:05:14;98968.23;;;0.52;81.37
40276;BME280;25990;52.768;16.930;2024-01-15T07:07:36;98972.26;;;0.48;81.58
40276;BME280;25990;52.768;16.930;2024-01-15T07:09:59;98962.16;;;0.50;81.10
40276;BME280;25990;52.768;16.930;2024-01-15T07:12:21;98955.29;;;0.49;80.72
40276;BME280;25990;52.768;16.930;2024-01-15T07:14:43;98965.68;;;0.52;81.19
40276;BME280;25990;52.768;16.930;2024-01-15T07:17:06;98960.39;;;0.49;80.96
40276;BME280;25990;52.768;16.930;2024-01-15T07:19:28;98960.76;;;0.55;81.15
40276;BME280;25990;52.768;16.930;2024-01-15T07:21:50;98957.44;;;0.56;80.84
40276;BME280;25990;52.768;16.930;2024-01-15T07:24:13;98959.17;;;0.57;80.67
40276;BME280;25990;52.768;16.930;2024-01-15T07:26:35;98963.51;;;0.58;81.02
40276;BME280;25990;52.768;16.930;2024-01-15T07:28:57;98960.41;;;0.64;81.62
40276;BME280;25990;52.768;16.930;2024-01-15T07:31:19;98957.41;;;0.71;82.21
40276;BME280;25990;52.768;16.930;2024-01-15T07:33:42;98956.73;;;0.73;80.13
40276;BME280;25990;52.768;16.930;2024-01-15T07:36:04;98956.37;;;0.67;79.94
40276;BME280;25990;52.768;16.930;2024-01-15T07:38:27;98956.82;;;0.60;79.79
40276;BME280;25990;52.768;16.930;2024-01-15T07:40:48;98961.36;;;0.51;79.72
40276;BME280;25990;52.768;16.930;2024-01-15T07:43:11;98956.71;;;0.44;79.90
40276;BME280;25990;52.768;16.930;2024-01-15T07:45:33;98958.89;;;0.37;80.31
40276;BME280;25990;52.768;16.930;2024-01-15T07:47:55;98951.71;;;0.45;80.53
40276;BME280;25990;52.768;16.930;2024-01-15T07:50:18;98955.59;;;0.53;80.21
40276;BME280;25990;52.768;16.930;2024-01-15T07:52:40;98952.15;;;0.68;80.16
40276;BME280;25990;52.768;16.930;2024-01-15T07:55:03;98946.53;;;0.73;79.86
40276;BME280;25990;52.768;16.930;2024-01-15T07:57:25;98944.31;;;0.79;79.55
40276;BME280;25990;52.768;16.930;2024-01-15T07:59:47;98946.60;;;0.90;79.49
40276;BME280;25990;52.768;16.930;2024-01-15T08:02:09;98960.16;;;0.89;79.50
40276;BME280;25990;52.768;16.930;2024-01-15T08:04:32;98959.20;;;0.87;80.54
40276;BME280;25990;52.768;16.930;2024-01-15T08:06:54;98957.41;;;0.86;81.04
40276;BME280;25990;52.768;16.930;2024-01-15T08:09:16;98956.39;;;0.82;81.33
40276;BME280;25990;52.768;16.930;2024-01-15T08:11:40;98949.77;;;0.86;81.33
40276;BME280;25990;52.768;16.930;2024-01-15T08:14:01;98947.48;;;0.90;81.21
40276;BME280;25990;52.768;16.930;2024-01-15T08:16:23;98944.93;;;0.90;80.89
40276;BME280;25990;52.768;16.930;2024-01-15T08:18:47;98932.78;;;0.86;80.64
40276;BME280;25990;52.768;16.930;2024-01-15T08:21:08;98946.50;;;0.88;80.82
40276;BME280;25990;52.768;16.930;2024-01-15T08:23:30;98929.37;;;0.86;80.87
40276;BME280;25990;52.768;16.930;2024-01-15T08:25:53;98935.80;;;0.79;81.18
40276;BME280;25990;52.768;16.930;2024-01-15T08:28:15;98929.02;;;0.79;81.44
40276;BME280;25990;52.768;16.930;2024-01-15T08:30:37;98932.53;;;0.81;81.27
40276;BME280;25990;52.768;16.930;2024-01-15T08:33:00;98937.62;;;0.81;81.34
40276;BME280;25990;52.768;16.930;2024-01-15T08:35:22;98934.47;;;0.86;81.16
40276;BME280;25990;52.768;16.930;2024-01-15T08:37:44;98930.16;;;0.85;81.12
40276;BME280;25990;52.768;16.930;2024-01-15T08:40:08;98928.75;;;0.90;80.82
40276;BME280;25990;52.768;16.930;2024-01-15T08:42:29;98932.42;;;0.95;80.84
40276;BME280;25990;52.768;16.930;2024-01-15T08:44:51;98928.29;;;0.97;80.66
40276;BME280;25990;52.768;16.930;2024-01-15T08:47:14;98937.88;;;1.01;80.51
40276;BME280;25990;52.768;16.930;2024-01-15T08:49:36;98925.21;;;1.02;80.60
40276;BME280;25990;52.768;16.930;2024-01-15T08:51:58;98931.80;;;0.99;80.71
40276;BME280;25990;52.768;16.930;2024-01-15T08:54:21;98927.52;;;0.98;80.92
40276;BME280;25990;52.768;16.930;2024-01-15T08:56:43;98924.70;;;0.93;80.91
40276;BME280;25990;52.768;16.930;2024-01-15T08:59:06;98935.42;;;1.02;80.82
40276;BME280;25990;52.768;16.930;2024-01-15T09:01:28;98929.05;;;1.11;80.05
40276;BME280;25990;52.768;16.930;2024-01-15T09:03:50;98922.64;;;1.17;79.95
40276;BME280;25990;52.768;16.930;2024-01-15T09:06:12;98916.02;;;1.21;78.75
40276;BME280;25990;52.768;16.930;2024-01-15T09:08:35;98930.72;;;1.25;78.21
40276;BME280;25990;52.768;16.930;2024-01-15T09:10:57;98934.75;;;1.21;78.55
40276;BME280;25990;52.768;16.930;2024-01-15T09:13:19;98936.80;;;1.12;80.05
40276;BME280;25990;52.768;16.930;2024-01-15T09:15:42;98933.04;;;1.06;81.03
40276;BME280;25990;52.768;16.930;2024-01-15T09:18:05;98949.51;;;0.96;81.88
40276;BME280;25990;52.768;16.930;2024-01-15T09:20:27;98978.80;;;0.88;82.87
40276;BME280;25990;52.768;16.930;2024-01-15T09:22:49;98948.38;;;0.76;83.47
40276;BME280;25990;52.768;16.930;2024-01-15T09:25:11;98957.60;;;0.74;83.58
40276;BME280;25990;52.768;16.930;2024-01-15T09:27:33;98968.14;;;0.50;88.41
40276;BME280;25990;52.768;16.930;2024-01-15T09:29:56;98943.09;;;0.43;85.69
40276;BME280;25990;52.768;16.930;2024-01-15T09:32:18;98941.42;;;0.58;85.16
40276;BME280;25990;52.768;16.930;2024-01-15T09:34:40;98942.76;;;0.67;82.23
40276;BME280;25990;52.768;16.930;2024-01-15T09:37:03;98941.95;;;0.82;82.21
40276;BME280;25990;52.768;16.930;2024-01-15T09:39:26;98958.74;;;0.94;80.89
40276;BME280;25990;52.768;16.930;2024-01-15T09:41:47;98943.09;;;1.02;79.33
40276;BME280;25990;52.768;16.930;2024-01-15T09:44:10;98953.70;;;1.10;78.70
40276;BME280;25990;52.768;16.930;2024-01-15T09:46:32;98960.57;;;1.11;78.50
40276;BME280;25990;52.768;16.930;2024-01-15T09:48:54;98960.57;;;1.11;78.28
40276;BME280;25990;52.768;16.930;2024-01-15T09:51:17;98955.63;;;1.14;78.42
40276;BME280;25990;52.768;16.930;2024-01-15T09:53:39;98958.38;;;1.17;78.36
40276;BME280;25990;52.768;16.930;2024-01-15T09:56:01;98960.92;;;1.17;77.63
40276;BME280;25990;52.768;16.930;2024-01-15T09:58:23;98956.95;;;1.22;77.71
40276;BME280;25990;52.768;16.930;2024-01-15T10:00:48;98961.59;;;1.30;77.61
40276;BME280;25990;52.768;16.930;2024-01-15T10:03:08;98966.33;;;1.38;77.02
40276;BME280;25990;52.768;16.930;2024-01-15T10:05:30;98956.36;;;1.43;77.09
40276;BME280;25990;52.768;16.930;2024-01-15T10:07:54;98962.94;;;1.54;77.16
40276;BME280;25990;52.768;16.930;2024-01-15T10:10:15;98953.68;;;1.56;75.58
40276;BME280;25990;52.768;16.930;2024-01-15T10:12:39;98945.93;;;1.55;76.19
40276;BME280;25990;52.768;16.930;2024-01-15T10:15:00;98961.00;;;1.50;76.07
40276;BME280;25990;52.768;16.930;2024-01-15T10:17:24;98953.09;;;1.45;76.46
40276;BME280;25990;52.768;16.930;2024-01-15T10:19:47;98958.65;;;1.70;76.36
40276;BME280;25990;52.768;16.930;2024-01-15T10:22:08;98946.99;;;1.75;75.59
40276;BME280;25990;52.768;16.930;2024-01-15T10:24:29;98953.70;;;1.73;74.86
40276;BME280;25990;52.768;16.930;2024-01-15T10:26:51;98957.69;;;1.68;75.33
40276;BME280;25990;52.768;16.930;2024-01-15T10:29:14;98953.05;;;1.60;75.31
40276;BME280;25990;52.768;16.930;2024-01-15T10:31:37;98957.20;;;1.58;75.29
40276;BME280;25990;52.768;16.930;2024-01-15T10:36:21;98957.10;;;1.57;75.23
40276;BME280;25990;52.768;16.930;2024-01-15T10:38:44;98955.37;;;1.56;75.31
40276;BME280;25990;52.768;16.930;2024-01-15T10:41:06;98953.77;;;1.58;75.41
40276;BME280;25990;52.768;16.930;2024-01-15T10:43:28;98953.39;;;1.67;75.35
40276;BME280;25990;52.768;16.930;2024-01-15T10:45:51;98958.95;;;1.59;76.01
40276;BME280;25990;52.768;16.930;2024-01-15T10:48:14;98968.66;;;1.50;77.32
40276;BME280;25990;52.768;16.930;2024-01-15T10:50:36;98978.56;;;1.44;78.31
40276;BME280;25990;52.768;16.930;2024-01-15T10:52:57;98972.65;;;1.45;78.06
40276;BME280;25990;52.768;16.930;2024-01-15T10:55:20;98969.13;;;1.43;77.89
40276;BME280;25990;52.768;16.930;2024-01-15T10:57:44;98967.38;;;1.42;77.74
40276;BME280;25990;52.768;16.930;2024-01-15T11:00:06;98962.43;;;1.45;77.68
40276;BME280;25990;52.768;16.930;2024-01-15T11:02:27;98969.09;;;1.58;77.42
40276;BME280;25990;52.768;16.930;2024-01-15T11:04:49;98961.09;;;1.52;77.10
40276;BME280;25990;52.768;16.930;2024-01-15T11:07:13;98957.30;;;1.60;76.99
40276;BME280;25990;52.768;16.930;2024-01-15T11:09:34;98948.09;;;1.63;76.66
40276;BME280;25990;52.768;16.930;2024-01-15T11:19:05;98950.01;;;1.51;76.36
40276;BME280;25990;52.768;16.930;2024-01-15T11:21:26;98955.40;;;1.41;77.89
40276;BME280;25990;52.768;16.930;2024-01-15T11:23:57;98951.50;;;1.48;78.01
40276;BME280;25990;52.768;16.930;2024-01-15T11:30:54;98954.53;;;1.40;78.63
40276;BME280;25990;52.768;16.930;2024-01-15T11:35:47;98943.48;;;1.25;79.84
40276;BME280;25990;52.768;16.930;2024-01-15T11:38:01;98949.82;;;1.17;80.46
40276;BME280;25990;52.768;16.930;2024-01-15T11:40:36;98948.53;;;1.09;81.40
40276;BME280;25990;52.768;16.930;2024-01-15T11:42:46;98949.77;;;0.86;82.46
40276;BME280;25990;52.768;16.930;2024-01-15T11:45:08;98956.73;;;0.58;84.00
40276;BME280;25990;52.768;16.930;2024-01-15T11:50:01;98934.91;;;0.34;85.33
40276;BME280;25990;52.768;16.930;2024-01-15T11:52:18;98943.85;;;0.27;84.83
40276;BME280;25990;52.768;16.930;2024-01-15T11:54:44;98957.20;;;0.23;84.27
40276;BME280;25990;52.768;16.930;2024-01-15T11:57:04;98947.18;;;0.26;83.72
40276;BME280;25990;52.768;16.930;2024-01-15T11:59:22;98952.14;;;0.38;83.07
40276;BME280;25990;52.768;16.930;2024-01-15T12:01:44;98953.02;;;0.38;82.56
40276;BME280;25990;52.768;16.930;2024-01-15T12:04:06;98965.92;;;0.41;82.02
40276;BME280;25990;52.768;16.930;2024-01-15T12:06:28;98962.41;;;0.39;82.53
40276;BME280;25990;52.768;16.930;2024-01-15T12:08:50;98957.30;;;0.25;83.09
40276;BME280;25990;52.768;16.930;2024-01-15T12:11:14;98955.85;;;0.15;84.16
40276;BME280;25990;52.768;16.930;2024-01-15T12:13:34;98955.32;;;0.06;84.87
40276;BME280;25990;52.768;16.930;2024-01-15T12:15:57;98945.01;;;-0.11;84.34
40276;BME280;25990;52.768;16.930;2024-01-15T12:18:19;98968.94;;;-0.22;83.94
40276;BME280;25990;52.768;16.930;2024-01-15T12:20:42;98955.30;;;-0.23;83.89
40276;BME280;25990;52.768;16.930;2024-01-15T12:23:03;98947.88;;;-0.19;83.57
40276;BME280;25990;52.768;16.930;2024-01-15T12:25:25;98951.47;;;-0.16;82.42
40276;BME280;25990;52.768;16.930;2024-01-15T12:27:48;98958.02;;;-0.06;81.77
40276;BME280;25990;52.768;16.930;2024-01-15T12:30:13;98947.29;;;-0.01;82.16
40276;BME280;25990;52.768;16.930;2024-01-15T12:32:32;98943.82;;;0.12;81.85
40276;BME280;25990;52.768;16.930;2024-01-15T12:34:54;98943.85;;;0.27;81.98
40276;BME280;25990;52.768;16.930;2024-01-15T12:37:18;98942.45;;;0.32;81.57
40276;BME280;25990;52.768;16.930;2024-01-15T12:39:38;98933.13;;;0.33;80.89
40276;BME280;25990;52.768;16.930;2024-01-15T12:42:00;98927.05;;;0.31;80.59
40276;BME280;25990;52.768;16.930;2024-01-15T12:44:22;98927.59;;;0.25;80.11
40276;BME280;25990;52.768;16.930;2024-01-15T12:46:45;98929.67;;;0.17;79.74
40276;BME280;25990;52.768;16.930;2024-01-15T12:49:08;98948.14;;;0.13;79.57
40276;BME280;25990;52.768;16.930;2024-01-15T12:51:29;98932.21;;;0.03;79.71
40276;BME280;25990;52.768;16.930;2024-01-15T12:53:51;98935.53;;;0.02;79.88
40276;BME280;25990;52.768;16.930;2024-01-15T12:56:13;98935.17;;;-0.05;79.81